createdAt,value
2019-02-22T00:00:45.317Z,11.60
2019-02-22T00:02:03.117Z,11.60
2019-02-22T00:03:07.893Z,11.60
2019-02-22T00:04:13.983Z,11.60
2019-02-22T00:05:18.735Z,11.60
2019-02-22T00:06:24.187Z,11.60
2019-02-22T00:07:29.009Z,11.60
2019-02-22T00:08:33.745Z,11.60
2019-02-22T00:09:49.154Z,11.50
2019-02-22T00:10:46.519Z,11.50
2019-02-22T00:11:51.833Z,11.50
2019-02-22T00:12:56.596Z,11.50
2019-02-22T00:14:03.541Z,11.50
2019-02-22T00:15:16.347Z,11.50
2019-02-22T00:16:21.298Z,11.50
2019-02-22T00:17:30.202Z,11.40
2019-02-22T00:18:44.111Z,11.40
2019-02-22T00:19:48.765Z,11.50
2019-02-22T00:20:53.977Z,11.50
2019-02-22T00:21:59.154Z,11.40
2019-02-22T00:23:04.134Z,11.40
2019-02-22T00:24:08.921Z,11.40
2019-02-22T00:25:14.207Z,11.40
2019-02-22T00:26:21.900Z,11.40
2019-02-22T00:27:31.277Z,11.40
2019-02-22T00:28:36.143Z,11.40
2019-02-22T00:29:40.894Z,11.40
2019-02-22T00:30:47.905Z,11.40
2019-02-22T00:31:53.859Z,11.40
2019-02-22T00:32:59.205Z,11.40
2019-02-22T00:34:04.024Z,11.40
2019-02-22T00:35:10.823Z,11.40
2019-02-22T00:36:17.028Z,11.40
2019-02-22T00:37:22.046Z,11.40
2019-02-22T00:38:30.124Z,11.40
2019-02-22T00:39:35.250Z,11.40
2019-02-22T00:40:40.121Z,11.40
2019-02-22T00:41:46.142Z,11.40
2019-02-22T00:42:50.971Z,11.40
2019-02-22T00:44:00.890Z,11.40
2019-02-22T00:45:06.218Z,11.40
2019-02-22T00:46:11.330Z,11.40
2019-02-22T00:47:16.260Z,11.40
2019-02-22T00:48:21.358Z,11.40
2019-02-22T00:49:26.209Z,11.40
2019-02-22T00:50:45.217Z,11.40
2019-02-22T00:52:08.608Z,11.40
2019-02-22T00:53:13.357Z,11.40
2019-02-22T00:54:18.322Z,11.30
2019-02-22T00:55:23.135Z,11.40
2019-02-22T00:56:29.346Z,11.40
2019-02-22T00:57:36.084Z,11.40
2019-02-22T00:58:41.296Z,11.40
2019-02-22T00:59:46.332Z,11.40
2019-02-22T01:00:52.057Z,11.40
2019-02-22T01:01:57.439Z,11.40
2019-02-22T01:03:11.397Z,11.40
2019-02-22T01:04:19.040Z,11.30
2019-02-22T01:05:24.180Z,11.40
2019-02-22T01:06:28.932Z,11.40
2019-02-22T01:07:33.725Z,11.30
2019-02-22T01:08:38.537Z,11.40
2019-02-22T01:09:43.969Z,11.30
2019-02-22T01:10:48.773Z,11.30
2019-02-22T01:11:53.522Z,11.30
2019-02-22T01:12:58.322Z,11.30
2019-02-22T01:14:03.264Z,11.30
2019-02-22T01:15:08.437Z,11.30
2019-02-22T01:16:13.328Z,11.30
2019-02-22T01:17:18.273Z,11.30
2019-02-22T01:18:23.087Z,11.30
2019-02-22T01:19:27.798Z,11.20
2019-02-22T01:20:32.574Z,11.20
2019-02-22T01:21:37.372Z,11.20
2019-02-22T01:22:51.117Z,11.20
2019-02-22T01:23:58.955Z,11.10
2019-02-22T01:25:03.696Z,11.20
2019-02-22T01:26:08.806Z,11.20
2019-02-22T01:27:13.787Z,11.10
2019-02-22T01:28:18.561Z,11.10
2019-02-22T01:29:23.862Z,11.10
2019-02-22T01:30:28.972Z,11.10
2019-02-22T01:31:33.731Z,11.10
2019-02-22T01:32:38.529Z,11.10
2019-02-22T01:33:43.303Z,11.10
2019-02-22T01:34:48.146Z,11.10
2019-02-22T01:35:53.618Z,11.10
2019-02-22T01:36:58.346Z,11.10
2019-02-22T01:38:03.130Z,11.10
2019-02-22T01:39:07.997Z,11.10
2019-02-22T01:40:12.867Z,11.10
2019-02-22T01:41:18.234Z,11.00
2019-02-22T01:42:22.959Z,11.00
2019-02-22T01:43:27.771Z,11.00
2019-02-22T01:44:32.865Z,11.00
2019-02-22T01:45:37.752Z,11.00
2019-02-22T01:46:42.894Z,11.00
2019-02-22T01:47:49.085Z,11.00
2019-02-22T01:48:55.597Z,11.00
2019-02-22T01:50:00.986Z,11.00
2019-02-22T01:51:05.746Z,10.90
2019-02-22T01:52:10.553Z,10.90
2019-02-22T01:53:15.356Z,10.90
2019-02-22T01:54:20.106Z,10.90
2019-02-22T01:55:25.186Z,10.90
2019-02-22T01:56:30.173Z,10.90
2019-02-22T01:57:35.160Z,10.90
2019-02-22T01:58:48.401Z,10.90
2019-02-22T01:59:46.320Z,11.00
2019-02-22T02:00:51.088Z,10.90
2019-02-22T02:01:55.841Z,10.90
2019-02-22T02:03:00.692Z,10.90
2019-02-22T02:04:05.420Z,11.00
2019-02-22T02:05:10.485Z,10.90
2019-02-22T02:06:15.218Z,10.90
2019-02-22T02:07:20.237Z,10.90
2019-02-22T02:08:26.293Z,10.90
2019-02-22T02:09:31.113Z,11.00
2019-02-22T02:10:36.497Z,11.00
2019-02-22T02:11:41.224Z,11.00
2019-02-22T02:12:46.230Z,11.00
2019-02-22T02:13:53.766Z,10.90
2019-02-22T02:14:58.518Z,10.90
2019-02-22T02:16:03.406Z,10.90
2019-02-22T02:17:08.156Z,10.90
2019-02-22T02:18:13.033Z,10.90
2019-02-22T02:19:17.805Z,10.90
2019-02-22T02:20:24.313Z,10.90
2019-02-22T02:21:29.028Z,10.90
2019-02-22T02:22:33.761Z,11.00
2019-02-22T02:23:38.586Z,11.00
2019-02-22T02:24:43.345Z,10.90
2019-02-22T02:25:48.085Z,10.90
2019-02-22T02:26:52.985Z,10.90
2019-02-22T02:27:57.736Z,10.90
2019-02-22T02:29:06.209Z,10.90
2019-02-22T02:30:11.330Z,10.90
2019-02-22T02:31:16.365Z,10.90
2019-02-22T02:32:21.515Z,10.90
2019-02-22T02:33:26.723Z,10.90
2019-02-22T02:34:31.539Z,10.90
2019-02-22T02:35:36.687Z,10.90
2019-02-22T02:36:42.202Z,10.90
2019-02-22T02:37:47.592Z,10.90
2019-02-22T02:38:52.920Z,10.90
2019-02-22T02:39:57.751Z,10.90
2019-02-22T02:41:08.363Z,10.90
2019-02-22T02:42:09.023Z,10.90
2019-02-22T02:43:13.799Z,10.90
2019-02-22T02:44:18.551Z,10.90
2019-02-22T02:45:23.325Z,10.90
2019-02-22T02:46:28.069Z,11.00
2019-02-22T02:47:32.893Z,11.00
2019-02-22T02:48:37.633Z,11.00
2019-02-22T02:49:42.395Z,11.00
2019-02-22T02:50:47.145Z,10.90
2019-02-22T02:51:52.191Z,10.90
2019-02-22T02:52:57.350Z,10.90
2019-02-22T02:54:02.612Z,10.60
2019-02-22T02:55:31.994Z,10.90
2019-02-22T02:56:36.810Z,11.00
2019-02-22T02:57:42.001Z,11.00
2019-02-22T02:58:47.421Z,11.00
2019-02-22T02:59:52.262Z,11.00
2019-02-22T03:00:57.419Z,11.00
2019-02-22T03:02:03.536Z,11.00
2019-02-22T03:03:08.292Z,11.00
2019-02-22T03:04:13.249Z,11.00
2019-02-22T03:05:19.817Z,11.00
2019-02-22T03:06:31.466Z,11.00
2019-02-22T03:07:43.591Z,11.00
2019-02-22T03:08:48.416Z,11.00
2019-02-22T03:09:53.243Z,11.00
2019-02-22T03:10:57.996Z,11.00
2019-02-22T03:12:02.729Z,10.90
2019-02-22T03:13:07.437Z,11.00
2019-02-22T03:14:12.229Z,11.00
2019-02-22T03:15:18.317Z,11.00
2019-02-22T03:16:23.121Z,11.00
2019-02-22T03:17:27.906Z,11.00
2019-02-22T03:18:33.542Z,11.00
2019-02-22T03:19:38.878Z,11.00
2019-02-22T03:20:43.628Z,11.00
2019-02-22T03:21:48.386Z,11.00
2019-02-22T03:22:53.137Z,11.00
2019-02-22T03:23:58.109Z,11.00
2019-02-22T03:25:03.275Z,11.00
2019-02-22T03:26:08.248Z,11.00
2019-02-22T03:27:12.960Z,11.00
2019-02-22T03:28:17.746Z,11.00
2019-02-22T03:29:22.805Z,11.00
2019-02-22T03:30:27.591Z,10.90
2019-02-22T03:31:33.113Z,11.00
2019-02-22T03:32:38.662Z,10.90
2019-02-22T03:33:43.875Z,10.90
2019-02-22T03:34:48.840Z,11.00
2019-02-22T03:35:54.055Z,11.00
2019-02-22T03:36:58.949Z,10.90
2019-02-22T03:38:05.982Z,10.90
2019-02-22T03:39:10.714Z,10.90
2019-02-22T03:40:15.483Z,10.90
2019-02-22T03:41:31.930Z,10.90
2019-02-22T03:42:27.012Z,10.90
2019-02-22T03:43:31.909Z,11.00
2019-02-22T03:44:37.532Z,11.00
2019-02-22T03:45:42.321Z,10.90
2019-02-22T03:46:47.348Z,10.90
2019-02-22T03:47:52.048Z,10.90
2019-02-22T03:48:56.885Z,10.90
2019-02-22T03:50:01.764Z,10.90
2019-02-22T03:51:07.097Z,10.90
2019-02-22T03:52:28.547Z,10.90
2019-02-22T03:53:37.049Z,10.90
2019-02-22T03:54:41.796Z,10.90
2019-02-22T03:55:46.710Z,11.00
2019-02-22T03:56:51.472Z,11.00
2019-02-22T03:57:56.218Z,11.00
2019-02-22T03:59:01.005Z,11.00
2019-02-22T04:00:06.207Z,10.90
2019-02-22T04:01:12.821Z,11.00
2019-02-22T04:02:17.561Z,10.90
2019-02-22T04:03:22.303Z,11.00
2019-02-22T04:04:27.276Z,11.00
2019-02-22T04:05:34.922Z,11.00
2019-02-22T04:06:39.693Z,11.00
2019-02-22T04:07:44.455Z,10.90
2019-02-22T04:08:49.205Z,10.90
2019-02-22T04:09:54.037Z,10.90
2019-02-22T04:10:58.880Z,10.90
2019-02-22T04:12:03.628Z,10.90
2019-02-22T04:13:08.382Z,10.90
2019-02-22T04:14:13.482Z,10.90
2019-02-22T04:15:18.813Z,10.90
2019-02-22T04:16:23.809Z,10.90
2019-02-22T04:17:28.555Z,11.00
2019-02-22T04:18:33.395Z,10.90
2019-02-22T04:19:38.345Z,10.90
2019-02-22T04:20:43.321Z,10.90
2019-02-22T04:21:49.688Z,10.90
2019-02-22T04:22:54.697Z,10.90
2019-02-22T04:23:59.416Z,10.90
2019-02-22T04:25:04.139Z,10.90
2019-02-22T04:26:08.983Z,10.90
2019-02-22T04:27:13.789Z,10.90
2019-02-22T04:28:18.551Z,10.90
2019-02-22T04:29:23.277Z,10.90
2019-02-22T04:30:27.993Z,10.90
2019-02-22T04:31:32.807Z,10.90
2019-02-22T04:32:37.633Z,10.90
2019-02-22T04:33:42.389Z,10.90
2019-02-22T04:34:47.149Z,10.90
2019-02-22T04:35:52.089Z,10.90
2019-02-22T04:36:56.889Z,10.90
2019-02-22T04:38:01.741Z,10.90
2019-02-22T04:39:40.214Z,10.90
2019-02-22T04:40:45.320Z,10.90
2019-02-22T04:41:58.166Z,10.90
2019-02-22T04:42:59.650Z,10.90
2019-02-22T04:44:04.571Z,10.90
2019-02-22T04:45:09.701Z,10.90
2019-02-22T04:46:14.516Z,10.90
2019-02-22T04:47:19.354Z,10.90
2019-02-22T04:48:24.275Z,10.90
2019-02-22T04:49:41.031Z,10.90
2019-02-22T04:50:45.839Z,10.90
2019-02-22T04:51:52.941Z,10.90
2019-02-22T04:53:00.092Z,11.00
2019-02-22T04:54:07.504Z,11.00
2019-02-22T04:55:12.406Z,11.00
2019-02-22T04:56:17.181Z,10.90
2019-02-22T04:57:22.227Z,10.90
2019-02-22T04:58:27.562Z,11.00
2019-02-22T04:59:32.377Z,11.00
2019-02-22T05:00:37.322Z,11.00
2019-02-22T05:01:45.033Z,11.00
2019-02-22T05:02:49.795Z,11.00
2019-02-22T05:03:55.088Z,10.90
2019-02-22T05:04:59.887Z,11.00
2019-02-22T05:06:05.034Z,11.00
2019-02-22T05:07:10.185Z,10.90
2019-02-22T05:08:17.111Z,10.90
2019-02-22T05:09:22.016Z,10.90
2019-02-22T05:10:27.481Z,10.90
2019-02-22T05:11:32.266Z,10.90
2019-02-22T05:12:37.168Z,10.90
2019-02-22T05:13:41.942Z,11.10
2019-02-22T05:14:47.133Z,10.90
2019-02-22T05:15:54.962Z,10.90
2019-02-22T05:16:59.786Z,10.90
2019-02-22T05:18:12.296Z,10.90
2019-02-22T05:19:23.092Z,10.90
2019-02-22T05:20:27.939Z,10.90
2019-02-22T05:21:37.810Z,10.90
2019-02-22T05:22:44.919Z,10.90
2019-02-22T05:23:50.213Z,10.90
2019-02-22T05:24:55.044Z,10.90
2019-02-22T05:26:00.266Z,10.90
2019-02-22T05:27:05.115Z,10.90
2019-02-22T05:28:09.901Z,10.90
2019-02-22T05:29:14.722Z,10.90
2019-02-22T05:30:23.994Z,10.90
2019-02-22T05:31:28.962Z,10.90
2019-02-22T05:32:33.978Z,10.90
2019-02-22T05:33:38.930Z,10.90
2019-02-22T05:34:43.914Z,10.90
2019-02-22T05:35:49.592Z,10.90
2019-02-22T05:36:58.482Z,10.90
2019-02-22T05:38:03.296Z,10.90
2019-02-22T05:39:18.681Z,10.90
2019-02-22T05:40:15.123Z,10.90
2019-02-22T05:41:20.436Z,10.90
2019-02-22T05:42:28.675Z,10.90
2019-02-22T05:43:33.387Z,10.80
2019-02-22T05:44:38.243Z,10.80
2019-02-22T05:45:44.286Z,10.80
2019-02-22T05:46:59.886Z,10.90
2019-02-22T05:47:56.163Z,10.90
2019-02-22T05:49:01.220Z,10.90
2019-02-22T05:50:06.673Z,10.80
2019-02-22T05:51:12.035Z,10.90
2019-02-22T05:52:16.948Z,10.90
2019-02-22T05:53:21.857Z,11.60
2019-02-22T05:54:26.729Z,10.90
2019-02-22T05:55:32.390Z,10.90
2019-02-22T05:56:37.324Z,10.90
2019-02-22T05:57:42.172Z,10.90
2019-02-22T05:58:47.009Z,10.90
2019-02-22T05:59:51.818Z,10.90
2019-02-22T06:00:58.649Z,10.90
2019-02-22T06:02:06.574Z,10.90
2019-02-22T06:03:14.995Z,10.90
2019-02-22T06:04:22.134Z,10.90
2019-02-22T06:05:29.883Z,10.90
2019-02-22T06:06:34.715Z,10.80
2019-02-22T06:07:43.166Z,10.80
2019-02-22T06:08:48.251Z,10.80
2019-02-22T06:09:53.909Z,10.80
2019-02-22T06:11:00.963Z,10.80
2019-02-22T06:12:06.615Z,10.80
2019-02-22T06:13:14.803Z,10.80
2019-02-22T06:14:22.699Z,10.80
2019-02-22T06:15:37.307Z,10.80
2019-02-22T06:16:47.300Z,10.80
2019-02-22T06:17:55.202Z,10.90
2019-02-22T06:19:01.255Z,10.90
2019-02-22T06:20:07.578Z,10.90
2019-02-22T06:21:17.873Z,10.90
2019-02-22T06:22:29.581Z,10.80
2019-02-22T06:23:30.441Z,10.80
2019-02-22T06:24:36.134Z,10.80
2019-02-22T06:25:43.708Z,10.80
2019-02-22T06:26:49.197Z,10.80
2019-02-22T06:27:54.568Z,10.80
2019-02-22T06:28:59.421Z,10.80
2019-02-22T06:30:04.507Z,10.80
2019-02-22T06:31:11.016Z,9.90
2019-02-22T06:32:18.726Z,11.30
2019-02-22T06:33:24.475Z,10.90
2019-02-22T06:34:30.169Z,10.30
2019-02-22T06:35:35.029Z,10.90
2019-02-22T06:36:39.942Z,10.90
2019-02-22T06:37:45.151Z,10.90
2019-02-22T06:38:50.640Z,10.90
2019-02-22T06:39:55.663Z,10.90
2019-02-22T06:41:01.260Z,10.90
2019-02-22T06:42:06.683Z,10.90
2019-02-22T06:43:11.525Z,10.90
2019-02-22T06:44:17.160Z,10.90
2019-02-22T06:45:24.303Z,10.90
2019-02-22T06:46:29.332Z,10.90
2019-02-22T06:47:34.953Z,10.90
2019-02-22T06:48:39.731Z,10.80
2019-02-22T06:49:44.675Z,10.90
2019-02-22T06:50:49.697Z,10.90
2019-02-22T06:51:54.700Z,10.90
2019-02-22T06:53:01.658Z,10.90
2019-02-22T06:54:10.135Z,10.90
2019-02-22T06:55:14.981Z,10.90
2019-02-22T06:56:20.020Z,10.90
2019-02-22T06:57:24.890Z,10.90
2019-02-22T06:58:29.815Z,10.90
2019-02-22T06:59:35.258Z,10.90
2019-02-22T07:00:40.062Z,10.90
2019-02-22T07:01:45.093Z,10.90
2019-02-22T07:02:50.252Z,10.90
2019-02-22T07:03:55.118Z,10.90
2019-02-22T07:05:02.903Z,10.90
2019-02-22T07:06:07.699Z,10.90
2019-02-22T07:07:13.125Z,10.90
2019-02-22T07:08:17.960Z,10.90
2019-02-22T07:09:22.792Z,10.90
2019-02-22T07:10:28.635Z,10.90
2019-02-22T07:11:58.104Z,10.90
2019-02-22T07:13:08.503Z,10.90
2019-02-22T07:14:13.397Z,11.00
2019-02-22T07:15:18.448Z,11.00
2019-02-22T07:16:23.189Z,11.00
2019-02-22T07:17:28.276Z,11.00
2019-02-22T07:18:35.759Z,11.00
2019-02-22T07:19:43.536Z,11.00
2019-02-22T07:20:48.350Z,11.00
2019-02-22T07:21:53.291Z,11.00
2019-02-22T07:22:58.426Z,11.00
2019-02-22T07:24:03.381Z,11.00
2019-02-22T07:25:12.067Z,11.00
2019-02-22T07:26:17.246Z,11.00
2019-02-22T07:27:22.642Z,11.00
2019-02-22T07:28:29.562Z,10.90
2019-02-22T07:29:34.875Z,10.90
2019-02-22T07:30:40.192Z,11.00
2019-02-22T07:31:45.173Z,11.00
2019-02-22T07:32:53.489Z,11.00
2019-02-22T07:33:58.321Z,11.00
2019-02-22T07:35:06.879Z,11.00
2019-02-22T07:36:11.712Z,10.90
2019-02-22T07:37:20.017Z,11.00
2019-02-22T07:38:27.079Z,11.00
2019-02-22T07:39:36.360Z,11.00
2019-02-22T07:40:42.195Z,11.00
2019-02-22T07:41:47.151Z,11.00
2019-02-22T07:42:51.934Z,11.00
2019-02-22T07:43:56.858Z,11.00
2019-02-22T07:45:02.036Z,11.00
2019-02-22T07:46:08.083Z,11.00
2019-02-22T07:47:13.028Z,11.10
2019-02-22T07:48:18.466Z,11.10
2019-02-22T07:49:25.481Z,11.10
2019-02-22T07:50:30.796Z,11.10
2019-02-22T07:51:35.595Z,11.10
2019-02-22T07:52:41.125Z,11.10
2019-02-22T07:53:46.263Z,11.10
2019-02-22T07:54:51.260Z,11.10
2019-02-22T07:55:56.722Z,11.10
2019-02-22T07:57:02.263Z,11.10
2019-02-22T07:58:08.762Z,11.10
2019-02-22T07:59:14.092Z,11.10
2019-02-22T08:00:21.593Z,11.20
2019-02-22T08:01:27.065Z,11.20
2019-02-22T08:02:32.301Z,11.20
2019-02-22T08:03:40.011Z,11.20
2019-02-22T08:04:45.175Z,11.20
2019-02-22T08:05:58.105Z,11.20
2019-02-22T08:07:08.468Z,11.20
2019-02-22T08:08:13.368Z,11.30
2019-02-22T08:09:22.716Z,11.30
2019-02-22T08:10:27.536Z,11.30
2019-02-22T08:11:32.859Z,11.30
2019-02-22T08:12:37.862Z,11.30
2019-02-22T08:13:42.764Z,11.30
2019-02-22T08:14:48.150Z,11.30
2019-02-22T08:15:53.444Z,11.30
2019-02-22T08:16:58.270Z,11.30
2019-02-22T08:18:03.218Z,11.30
2019-02-22T08:19:11.564Z,11.30
2019-02-22T08:20:16.743Z,11.30
2019-02-22T08:21:23.131Z,11.30
2019-02-22T08:22:35.223Z,11.30
2019-02-22T08:23:40.182Z,11.30
2019-02-22T08:24:45.886Z,11.30
2019-02-22T08:25:50.926Z,11.40
2019-02-22T08:26:57.327Z,11.40
2019-02-22T08:28:02.844Z,11.40
2019-02-22T08:29:10.279Z,11.40
2019-02-22T08:30:15.485Z,11.40
2019-02-22T08:31:20.720Z,11.40
2019-02-22T08:32:31.606Z,11.40
2019-02-22T08:33:39.603Z,11.40
2019-02-22T08:34:45.948Z,11.40
2019-02-22T08:35:58.475Z,11.40
2019-02-22T08:37:03.301Z,11.40
2019-02-22T08:38:12.055Z,11.40
2019-02-22T08:39:17.286Z,11.40
2019-02-22T08:40:32.502Z,11.40
2019-02-22T08:41:38.431Z,11.40
2019-02-22T08:42:43.714Z,11.40
2019-02-22T08:43:52.222Z,11.40
2019-02-22T08:45:02.339Z,11.40
2019-02-22T08:46:07.863Z,11.40
2019-02-22T08:47:14.424Z,11.40
2019-02-22T08:48:22.390Z,11.40
2019-02-22T08:49:31.099Z,11.40
2019-02-22T08:50:36.247Z,11.40
2019-02-22T08:51:42.199Z,11.50
2019-02-22T08:52:47.277Z,11.40
2019-02-22T08:53:52.514Z,11.40
2019-02-22T08:54:57.694Z,11.50
2019-02-22T08:56:03.902Z,11.50
2019-02-22T08:57:09.269Z,11.50
2019-02-22T08:58:17.277Z,11.50
2019-02-22T08:59:33.072Z,11.50
2019-02-22T09:00:38.267Z,11.40
2019-02-22T09:01:43.087Z,11.50
2019-02-22T09:02:48.280Z,11.50
2019-02-22T09:03:56.458Z,11.50
2019-02-22T09:05:01.365Z,11.50
2019-02-22T09:06:06.431Z,11.50
2019-02-22T09:07:11.770Z,11.50
2019-02-22T09:08:18.901Z,11.70
2019-02-22T09:09:24.413Z,11.50
2019-02-22T09:10:29.643Z,11.50
2019-02-22T09:11:37.357Z,11.50
2019-02-22T09:12:47.177Z,11.50
2019-02-22T09:13:52.321Z,11.50
2019-02-22T09:15:00.458Z,11.50
2019-02-22T09:16:10.385Z,11.60
2019-02-22T09:17:15.609Z,11.50
2019-02-22T09:18:22.103Z,11.50
2019-02-22T09:19:27.197Z,11.60
2019-02-22T09:20:37.970Z,11.60
2019-02-22T09:21:43.219Z,11.60
2019-02-22T09:22:48.396Z,11.60
2019-02-22T09:23:59.344Z,11.60
2019-02-22T09:25:05.178Z,11.70
2019-02-22T09:26:10.123Z,11.70
2019-02-22T09:27:20.702Z,11.70
2019-02-22T09:28:26.382Z,11.70
2019-02-22T09:29:31.604Z,11.70
2019-02-22T09:30:38.717Z,11.70
2019-02-22T09:31:44.725Z,11.70
2019-02-22T09:32:50.128Z,11.70
2019-02-22T09:33:56.112Z,11.70
2019-02-22T09:35:01.555Z,11.70
2019-02-22T09:36:06.725Z,11.70
2019-02-22T09:37:13.351Z,11.70
2019-02-22T09:38:25.059Z,11.70
2019-02-22T09:39:37.560Z,11.70
2019-02-22T09:40:45.185Z,11.70
2019-02-22T09:41:50.260Z,11.80
2019-02-22T09:42:55.414Z,11.70
2019-02-22T09:44:02.783Z,11.80
2019-02-22T09:45:12.566Z,11.80
2019-02-22T09:46:17.698Z,11.80
2019-02-22T09:47:23.209Z,11.90
2019-02-22T09:48:28.717Z,11.90
2019-02-22T09:49:33.688Z,11.90
2019-02-22T09:50:42.368Z,12.00
2019-02-22T09:51:47.724Z,12.00
2019-02-22T09:52:54.198Z,12.00
2019-02-22T09:54:00.181Z,12.00
2019-02-22T09:55:06.860Z,12.10
2019-02-22T09:56:13.675Z,12.10
2019-02-22T09:57:22.797Z,12.10
2019-02-22T09:58:30.977Z,12.10
2019-02-22T09:59:36.584Z,12.10
2019-02-22T10:00:43.027Z,12.10
2019-02-22T10:01:49.199Z,12.10
2019-02-22T10:02:55.065Z,12.10
2019-02-22T10:04:00.347Z,12.20
2019-02-22T10:05:05.988Z,12.20
2019-02-22T10:06:18.307Z,14.10
2019-02-22T10:07:28.147Z,12.20
2019-02-22T10:08:33.711Z,12.20
2019-02-22T10:09:38.539Z,12.30
2019-02-22T10:10:45.080Z,12.30
2019-02-22T10:11:51.079Z,12.30
2019-02-22T10:12:58.916Z,12.30
2019-02-22T10:14:06.869Z,12.30
2019-02-22T10:15:12.016Z,12.30
2019-02-22T10:16:17.093Z,12.30
2019-02-22T10:17:23.889Z,12.30
2019-02-22T10:18:30.555Z,12.30
2019-02-22T10:19:35.945Z,12.30
2019-02-22T10:20:48.895Z,12.30
2019-02-22T10:21:57.747Z,12.30
2019-02-22T10:23:03.197Z,12.30
2019-02-22T10:24:11.294Z,12.30
2019-02-22T10:25:19.132Z,12.30
2019-02-22T10:26:25.308Z,12.40
2019-02-22T10:27:30.338Z,12.40
2019-02-22T10:28:36.084Z,12.40
2019-02-22T10:29:45.426Z,12.50
2019-02-22T10:30:50.471Z,12.50
2019-02-22T10:31:58.256Z,12.50
2019-02-22T10:33:03.583Z,12.60
2019-02-22T10:34:10.654Z,12.50
2019-02-22T10:35:18.709Z,12.50
2019-02-22T10:36:26.457Z,12.60
2019-02-22T10:37:31.311Z,12.60
2019-02-22T10:38:36.499Z,12.60
2019-02-22T10:39:44.247Z,12.60
2019-02-22T10:40:50.382Z,12.60
2019-02-22T10:41:55.748Z,12.60
2019-02-22T10:43:00.927Z,12.60
2019-02-22T10:44:17.379Z,12.60
2019-02-22T10:45:15.093Z,12.60
2019-02-22T10:46:22.144Z,12.50
2019-02-22T10:47:26.480Z,12.50
2019-02-22T10:48:31.336Z,12.50
2019-02-22T10:49:36.814Z,12.50
2019-02-22T10:50:42.251Z,12.50
2019-02-22T10:51:47.776Z,12.50
2019-02-22T10:53:01.859Z,12.50
2019-02-22T10:54:00.090Z,12.50
2019-02-22T10:55:08.677Z,12.50
2019-02-22T10:56:13.483Z,12.50
2019-02-22T10:57:18.369Z,12.60
2019-02-22T10:58:23.462Z,12.60
2019-02-22T10:59:28.248Z,12.60
2019-02-22T11:00:37.570Z,12.60
2019-02-22T11:01:43.190Z,12.70
2019-02-22T11:02:48.186Z,12.70
2019-02-22T11:03:53.354Z,12.80
2019-02-22T11:04:58.483Z,14.80
2019-02-22T11:06:03.655Z,12.80
2019-02-22T11:07:08.794Z,12.90
2019-02-22T11:08:16.232Z,12.80
2019-02-22T11:09:21.736Z,12.90
2019-02-22T11:10:33.254Z,12.90
2019-02-22T11:11:37.431Z,13.00
2019-02-22T11:12:42.242Z,13.00
2019-02-22T11:13:49.808Z,13.00
2019-02-22T11:14:56.013Z,13.00
2019-02-22T11:16:01.054Z,12.90
2019-02-22T11:17:06.350Z,13.00
2019-02-22T11:18:11.305Z,13.00
2019-02-22T11:19:16.186Z,13.00
2019-02-22T11:20:24.196Z,13.00
2019-02-22T11:21:30.339Z,13.10
2019-02-22T11:22:55.375Z,13.10
2019-02-22T11:24:02.342Z,13.20
2019-02-22T11:25:10.860Z,13.20
2019-02-22T11:26:16.656Z,13.30
2019-02-22T11:27:23.788Z,13.40
2019-02-22T11:28:32.328Z,13.40
2019-02-22T11:29:49.422Z,13.30
2019-02-22T11:30:56.686Z,13.30
2019-02-22T11:32:03.264Z,13.20
2019-02-22T11:33:30.797Z,13.20
2019-02-22T11:34:38.920Z,13.20
2019-02-22T11:35:44.802Z,13.10
2019-02-22T11:36:50.422Z,13.10
2019-02-22T11:37:55.627Z,13.10
2019-02-22T11:39:03.761Z,13.10
2019-02-22T11:40:09.465Z,13.20
2019-02-22T11:41:18.283Z,13.10
2019-02-22T11:42:24.080Z,13.10
2019-02-22T11:43:30.372Z,13.10
2019-02-22T11:44:40.452Z,13.10
2019-02-22T11:45:45.301Z,13.10
2019-02-22T11:46:50.354Z,13.00
2019-02-22T11:47:55.582Z,13.00
2019-02-22T11:49:00.556Z,13.00
2019-02-22T11:50:06.721Z,13.00
2019-02-22T11:51:21.081Z,13.10
2019-02-22T11:52:28.996Z,13.10
2019-02-22T11:53:39.452Z,13.10
2019-02-22T11:54:46.457Z,13.10
2019-02-22T11:55:57.502Z,13.20
2019-02-22T11:57:04.269Z,13.50
2019-02-22T11:58:12.542Z,13.80
2019-02-22T11:59:18.747Z,14.30
2019-02-22T12:00:26.848Z,15.10
2019-02-22T12:01:36.223Z,15.90
2019-02-22T12:02:45.910Z,16.70
2019-02-22T12:03:51.371Z,16.90
2019-02-22T12:04:56.230Z,17.10
2019-02-22T12:06:04.288Z,17.20
2019-02-22T12:07:09.737Z,17.20
2019-02-22T12:08:14.693Z,17.20
2019-02-22T12:09:20.308Z,17.80
2019-02-22T12:10:28.581Z,18.40
2019-02-22T12:11:39.307Z,19.10
2019-02-22T12:12:44.468Z,19.90
2019-02-22T12:13:51.316Z,20.50
2019-02-22T12:14:57.708Z,21.30
2019-02-22T12:16:02.813Z,22.00
2019-02-22T12:17:07.855Z,22.60
2019-02-22T12:18:15.433Z,22.90
2019-02-22T12:19:20.308Z,23.40
2019-02-22T12:20:25.461Z,23.90
2019-02-22T12:21:30.686Z,24.20
2019-02-22T12:22:39.103Z,24.40
2019-02-22T12:23:44.429Z,24.70
2019-02-22T12:24:50.239Z,25.00
2019-02-22T12:25:55.356Z,24.90
2019-02-22T12:27:16.049Z,24.20
2019-02-22T12:28:25.855Z,23.70
2019-02-22T12:29:54.572Z,23.10
2019-02-22T12:31:00.300Z,22.80
2019-02-22T12:32:05.656Z,22.10
2019-02-22T12:33:11.228Z,21.40
2019-02-22T12:34:16.612Z,20.80
2019-02-22T12:35:26.759Z,20.10
2019-02-22T12:36:39.117Z,19.50
2019-02-22T12:37:46.717Z,19.10
2019-02-22T12:38:52.190Z,19.20
2019-02-22T12:39:57.342Z,19.60
2019-02-22T12:41:05.707Z,20.10
2019-02-22T12:42:14.934Z,20.70
2019-02-22T12:43:20.439Z,21.10
2019-02-22T12:44:25.755Z,22.00
2019-02-22T12:45:31.213Z,22.80
2019-02-22T12:46:37.877Z,23.30
2019-02-22T12:47:46.243Z,23.70
2019-02-22T12:48:51.236Z,24.30
2019-02-22T12:49:59.481Z,24.70
2019-02-22T12:51:04.926Z,24.90
2019-02-22T12:52:10.288Z,25.30
2019-02-22T12:53:15.189Z,25.60
2019-02-22T12:54:20.534Z,25.40
2019-02-22T12:59:19.136Z,26.20
2019-02-22T13:03:14.105Z,26.70
2019-02-22T13:04:23.092Z,26.50
2019-02-22T13:05:36.586Z,25.90
2019-02-22T13:06:44.392Z,25.00
2019-02-22T13:08:06.597Z,24.00
2019-02-22T13:09:12.964Z,24.10
2019-02-22T13:12:14.074Z,22.10
2019-02-22T13:15:48.588Z,20.20
2019-02-22T13:17:30.281Z,19.40
2019-02-22T13:18:33.190Z,19.10
2019-02-22T13:19:41.474Z,18.90
2019-02-22T13:20:53.187Z,18.80
2019-02-22T13:22:33.080Z,18.70
2019-02-22T13:23:38.116Z,18.80
2019-02-22T13:24:43.589Z,19.60
2019-02-22T13:25:50.250Z,20.00
2019-02-22T13:26:55.958Z,19.90
2019-02-22T13:28:03.396Z,20.10
2019-02-22T13:29:09.295Z,19.80
2019-02-22T13:30:23.728Z,19.50
2019-02-22T13:31:30.271Z,19.30
2019-02-22T13:32:35.354Z,19.00
2019-02-22T13:33:48.576Z,18.70
2019-02-22T13:34:54.958Z,18.50
2019-02-22T13:36:06.735Z,18.20
2019-02-22T13:37:18.342Z,18.00
2019-02-22T13:38:27.108Z,17.80
2019-02-22T13:39:33.353Z,17.60
2019-02-22T13:42:51.229Z,17.30
2019-02-22T13:43:59.601Z,17.00
2019-02-22T13:45:08.714Z,16.90
2019-02-22T13:47:26.318Z,16.70
2019-02-22T13:48:34.647Z,16.70
2019-02-22T13:49:40.149Z,16.70
2019-02-22T13:51:54.543Z,16.70
2019-02-22T13:53:01.918Z,16.70
2019-02-22T13:54:08.202Z,16.80
2019-02-22T13:55:55.840Z,16.80
2019-02-22T13:57:02.592Z,16.80
2019-02-22T13:58:11.601Z,16.80
2019-02-22T13:59:16.710Z,16.80
2019-02-22T14:00:21.779Z,16.80
2019-02-22T14:01:27.716Z,16.80
2019-02-22T14:02:39.227Z,16.70
2019-02-22T14:03:44.325Z,16.60
2019-02-22T14:04:55.513Z,16.60
2019-02-22T14:06:32.296Z,16.50
2019-02-22T14:07:40.205Z,16.40
2019-02-22T14:08:51.328Z,16.30
2019-02-22T14:10:03.303Z,16.20
2019-02-22T14:11:11.941Z,16.20
2019-02-22T14:12:20.603Z,16.20
2019-02-22T14:13:27.436Z,16.10
2019-02-22T14:14:32.625Z,16.10
2019-02-22T14:15:38.536Z,16.10
2019-02-22T14:16:43.864Z,16.00
2019-02-22T14:17:51.983Z,16.00
2019-02-22T14:18:57.406Z,15.90
2019-02-22T14:20:02.378Z,15.90
2019-02-22T14:21:10.783Z,15.90
2019-02-22T14:22:16.265Z,15.90
2019-02-22T14:23:22.187Z,15.90
2019-02-22T14:24:28.486Z,15.90
2019-02-22T14:25:39.698Z,15.90
2019-02-22T14:27:25.205Z,15.90
2019-02-22T14:28:34.841Z,15.80
2019-02-22T14:29:40.412Z,15.70
2019-02-22T14:30:45.914Z,15.70
2019-02-22T14:31:52.083Z,15.70
2019-02-22T14:32:57.190Z,15.70
2019-02-22T14:34:02.372Z,15.60
2019-02-22T14:35:07.571Z,15.60